Time;durP1;ratioP1;P1;durP2;ratioP2;P2;SDS_P1;SDS_P2;PMS_P1;PMS_P2;Temp;Humidity;BMP_temperature;BMP_pressure;BME280_temperature;BME280_humidity;BME280_pressure;Samples;Min_cycle;Max_cycle;Signal;HPM_P1;HPM_P2
2022/03/04 00:01:29;;;;;;;33.15;14.48;;;;;;;3.50;64.86;101600.78;5063968;28;20056;-74
2022/03/04 00:03:57;;;;;;;37.28;16.45;;;;;;;3.39;66.97;101585.06;5065148;28;20501;-73
2022/03/04 00:06:23;;;;;;;33.10;14.52;;;;;;;3.37;66.72;101607.28;5065078;28;20497;-72
2022/03/04 00:08:50;;;;;;;30.75;13.00;;;;;;;3.31;68.12;101600.38;5065351;28;20048;-73
2022/03/04 00:11:17;;;;;;;34.97;14.95;;;;;;;3.24;67.95;101602.03;5065979;28;20139;-73
2022/03/04 00:13:44;;;;;;;34.65;15.35;;;;;;;3.17;67.78;101602.50;5066497;28;20139;-73
2022/03/04 00:16:11;;;;;;;35.33;14.60;;;;;;;3.14;68.23;101611.34;5066029;28;20044;-73
2022/03/04 00:18:38;;;;;;;42.70;15.93;;;;;;;3.13;68.19;101617.97;5059751;28;20075;-75
2022/03/04 00:21:06;;;;;;;34.70;14.60;;;;;;;3.08;69.20;101620.06;5066243;28;20833;-73
2022/03/04 00:23:33;;;;;;;36.08;15.32;;;;;;;3.04;69.86;101628.16;5064070;28;20098;-75
2022/03/04 00:26:00;;;;;;;32.15;14.38;;;;;;;2.95;70.76;101626.53;5061077;28;20048;-74
2022/03/04 00:28:27;;;;;;;31.75;13.88;;;;;;;2.91;71.81;101622.84;5066551;28;20049;-73
2022/03/04 00:30:54;;;;;;;34.95;14.00;;;;;;;2.87;71.56;101619.94;5067209;28;20052;-74
2022/03/04 00:33:21;;;;;;;35.75;15.65;;;;;;;2.82;71.11;101616.56;5064650;28;20075;-75
2022/03/04 00:35:47;;;;;;;37.42;15.35;;;;;;;2.78;71.09;101621.91;5067018;28;20142;-72
2022/03/04 00:38:14;;;;;;;34.65;15.48;;;;;;;2.74;71.73;101621.72;5066014;28;20335;-73
2022/03/04 00:40:40;;;;;;;33.75;14.82;;;;;;;2.74;73.30;101620.94;5064935;28;20044;-73
2022/03/04 00:43:07;;;;;;;37.00;15.57;;;;;;;2.77;71.86;101624.97;5058360;28;20060;-75
2022/03/04 00:45:33;;;;;;;37.13;17.58;;;;;;;2.77;74.88;101633.16;5065025;28;20053;-75
2022/03/04 00:48:00;;;;;;;36.00;17.00;;;;;;;2.78;74.13;101635.56;5066031;28;20074;-73
2022/03/04 00:50:27;;;;;;;36.67;17.33;;;;;;;2.74;72.20;101629.94;5064901;28;20090;-74
2022/03/04 00:52:54;;;;;;;38.85;16.60;;;;;;;2.74;73.62;101624.47;5064127;28;20045;-75
2022/03/04 00:55:21;;;;;;;37.88;17.27;;;;;;;2.78;74.76;101642.94;5057348;28;20160;-72
2022/03/04 00:57:47;;;;;;;35.17;16.90;;;;;;;2.72;73.38;101634.94;5062381;28;20044;-75
2022/03/04 01:00:15;;;;;;;39.53;18.20;;;;;;;2.70;73.23;101633.63;5060449;28;20049;-75
2022/03/04 01:02:42;;;;;;;41.35;18.20;;;;;;;2.66;73.48;101635.41;5069020;28;20140;-74
2022/03/04 01:05:08;;;;;;;38.72;18.38;;;;;;;2.64;73.73;101637.66;5068571;28;20110;-73
2022/03/04 01:07:35;;;;;;;37.78;18.33;;;;;;;2.57;74.41;101629.16;5064499;28;20094;-73
2022/03/04 01:10:02;;;;;;;37.15;16.42;;;;;;;2.52;75.97;101632.84;5067615;28;20862;-74
2022/03/04 01:12:29;;;;;;;39.45;16.35;;;;;;;2.50;75.15;101628.84;5070187;28;20123;-74
2022/03/04 01:14:56;;;;;;;38.80;17.85;;;;;;;2.50;74.74;101631.56;5067842;28;20079;-72
2022/03/04 01:17:22;;;;;;;40.45;17.40;;;;;;;2.48;75.81;101631.06;5066098;28;20722;-73
2022/03/04 01:19:49;;;;;;;36.75;17.05;;;;;;;2.46;75.91;101639.59;5070166;28;20536;-73
2022/03/04 01:22:16;;;;;;;37.65;17.70;;;;;;;2.42;77.00;101632.34;5068428;28;20084;-76
2022/03/04 01:24:42;;;;;;;41.25;18.45;;;;;;;2.36;77.00;101634.44;5070309;28;20084;-73
2022/03/04 01:27:09;;;;;;;39.17;18.02;;;;;;;2.29;79.18;101638.75;5068124;28;20063;-75
2022/03/04 01:29:35;;;;;;;44.72;17.88;;;;;;;2.32;78.70;101643.59;5069654;28;20056;-73
2022/03/04 01:32:02;;;;;;;43.10;18.35;;;;;;;2.28;78.82;101628.97;5070371;28;20158;-76
2022/03/04 01:34:28;;;;;;;44.30;19.33;;;;;;;2.31;79.87;101629.16;5068062;28;20163;-72
2022/03/04 01:36:55;;;;;;;42.67;17.42;;;;;;;2.26;77.43;101637.47;5069714;28;20052;-74
2022/03/04 01:39:22;;;;;;;37.00;18.10;;;;;;;2.21;81.07;101631.38;5066915;28;20064;-73
2022/03/04 01:41:48;;;;;;;36.17;16.55;;;;;;;2.20;80.83;101633.28;5068370;28;20468;-73
2022/03/04 01:44:15;;;;;;;42.72;17.88;;;;;;;2.17;80.14;101628.47;5067085;28;20048;-72
2022/03/04 01:46:42;;;;;;;37.35;18.52;;;;;;;2.13;80.28;101624.75;5068370;28;20048;-74
2022/03/04 01:49:09;;;;;;;45.85;18.40;;;;;;;2.14;80.04;101623.66;5066847;28;20173;-74
2022/03/04 01:51:35;;;;;;;43.88;18.38;;;;;;;2.15;82.29;101635.38;5066603;28;20140;-74
2022/03/04 01:54:03;;;;;;;38.15;18.80;;;;;;;2.16;82.09;101634.28;5073843;28;20052;-76
2022/03/04 01:56:30;;;;;;;46.10;19.17;;;;;;;2.13;81.42;101634.91;5065230;28;20131;-73
2022/03/04 01:58:57;;;;;;;39.47;18.10;;;;;;;2.11;80.67;101628.94;5070390;28;20132;-74
2022/03/04 02:01:23;;;;;;;41.78;18.73;;;;;;;2.08;79.92;101629.56;5067772;28;20708;-73
2022/03/04 02:03:50;;;;;;;37.55;17.77;;;;;;;2.04;80.67;101634.06;5067554;28;20132;-74
2022/03/04 02:06:17;;;;;;;41.08;19.00;;;;;;;2.01;82.57;101631.97;5066370;28;20065;-75
2022/03/04 02:08:44;;;;;;;38.83;17.83;;;;;;;1.99;82.11;101637.75;5057103;28;20052;-72
2022/03/04 02:11:10;;;;;;;41.67;17.95;;;;;;;1.95;82.50;101631.31;5068933;28;20091;-75
2022/03/04 02:13:38;;;;;;;37.25;17.45;;;;;;;1.92;82.06;101631.13;5068602;28;20144;-75
2022/03/04 02:16:17;;;;;;;41.15;18.90;;;;;;;1.92;82.41;101631.13;5066074;28;20121;-72
2022/03/04 02:18:44;;;;;;;43.65;19.95;;;;;;;1.89;81.76;101637.25;5063732;28;20054;-73
2022/03/04 02:21:13;;;;;;;41.42;19.02;;;;;;;1.81;82.74;101618.91;5068243;28;20139;-72
2022/03/04 02:23:40;;;;;;;41.38;18.52;;;;;;;1.83;83.78;101619.41;5063623;28;20131;-73
2022/03/04 02:26:06;;;;;;;43.45;19.92;;;;;;;1.73;84.10;101606.88;5069100;28;20060;-73
2022/03/04 02:28:33;;;;;;;45.53;19.52;;;;;;;1.76;84.93;101614.41;5068569;28;20398;-74
2022/03/04 02:31:00;;;;;;;44.22;18.88;;;;;;;1.76;85.33;101605.44;5069037;28;20148;-74
2022/03/04 02:33:27;;;;;;;43.10;19.40;;;;;;;1.70;82.09;101618.41;5069488;28;20114;-73
2022/03/04 02:35:59;;;;;;;39.78;19.02;;;;;;;1.59;81.68;101605.38;5067636;28;20044;-72
2022/03/04 02:38:25;;;;;;;41.50;18.70;;;;;;;1.61;81.99;101622.22;5066542;28;20040;-74
2022/03/04 02:40:52;;;;;;;45.72;20.35;;;;;;;1.57;85.02;101613.88;5065257;28;20465;-73
2022/03/04 02:43:18;;;;;;;45.55;20.20;;;;;;;1.58;86.65;101620.94;5064671;28;20048;-72
2022/03/04 02:45:45;;;;;;;43.28;20.63;;;;;;;1.60;86.57;101615.16;5067587;28;20140;-75
2022/03/04 02:48:12;;;;;;;44.60;20.40;;;;;;;1.58;85.04;101615.47;5058600;28;20579;-75
2022/03/04 02:50:38;;;;;;;42.90;19.13;;;;;;;1.55;86.59;101612.59;5070685;28;20602;-73
2022/03/04 02:53:05;;;;;;;43.53;19.58;;;;;;;1.58;85.90;101623.66;5067711;28;20088;-73
2022/03/04 02:55:31;;;;;;;46.58;20.58;;;;;;;1.55;87.16;101618.84;5066117;28;20144;-72
2022/03/04 02:57:58;;;;;;;42.85;18.75;;;;;;;1.54;87.37;101614.50;5067476;28;20110;-72
2022/03/04 03:00:24;;;;;;;41.42;19.27;;;;;;;1.54;86.03;101628.16;5068280;28;20044;-73
2022/03/04 03:02:51;;;;;;;43.65;20.52;;;;;;;1.54;86.56;101619.16;5068563;28;20489;-73
2022/03/04 03:05:18;;;;;;;47.05;20.42;;;;;;;1.45;86.54;101621.84;5060423;28;20059;-73
2022/03/04 03:07:44;;;;;;;49.13;20.92;;;;;;;1.43;87.67;101618.63;5068422;28;20139;-74
2022/03/04 03:10:11;;;;;;;43.85;20.98;;;;;;;1.45;88.73;101621.84;5074048;28;20481;-73
2022/03/04 03:12:41;;;;;;;50.00;22.40;;;;;;;1.44;88.69;101619.44;5055077;28;20053;-73
2022/03/04 03:15:09;;;;;;;46.80;21.45;;;;;;;1.41;89.05;101617.31;5069621;28;20063;-72
2022/03/04 03:17:37;;;;;;;45.83;21.40;;;;;;;1.39;88.83;101623.09;5069790;28;20140;-75
2022/03/04 03:20:05;;;;;;;47.85;20.70;;;;;;;1.38;90.26;101620.72;5066733;28;20085;-74
2022/03/04 03:22:31;;;;;;;47.10;21.20;;;;;;;1.41;89.81;101623.59;5054049;28;20139;-72
2022/03/04 03:24:58;;;;;;;46.75;22.33;;;;;;;1.44;91.31;101628.41;5065406;28;20053;-72
2022/03/04 03:27:25;;;;;;;48.83;20.92;;;;;;;1.45;90.82;101632.75;5067868;28;20051;-73
2022/03/04 03:29:51;;;;;;;47.05;20.40;;;;;;;1.49;91.66;101636.44;5068336;28;20070;-74
2022/03/04 03:32:18;;;;;;;46.53;19.58;;;;;;;1.49;91.41;101622.81;5066640;28;20165;-73
2022/03/04 03:34:44;;;;;;;47.92;20.92;;;;;;;1.50;90.88;101629.09;5069317;28;20132;-72
2022/03/04 03:37:11;;;;;;;46.47;20.40;;;;;;;1.50;90.63;101632.63;5068813;28;20048;-74
2022/03/04 03:39:38;;;;;;;43.05;20.23;;;;;;;1.50;91.06;101638.09;5066626;28;20080;-72
2022/03/04 03:42:05;;;;;;;43.63;19.65;;;;;;;1.49;92.04;101644.63;5068893;28;20480;-73
2022/03/04 03:44:32;;;;;;;46.13;20.17;;;;;;;1.49;91.60;101638.38;5068644;28;20159;-75
2022/03/04 03:46:58;;;;;;;48.47;19.95;;;;;;;1.49;92.44;101641.13;5067315;28;20098;-72
2022/03/04 03:49:25;;;;;;;45.55;19.13;;;;;;;1.47;91.83;101635.97;5068826;28;20497;-72
2022/03/04 03:51:52;;;;;;;48.08;20.02;;;;;;;1.43;91.87;101637.72;5066461;28;20106;-74
2022/03/04 03:54:18;;;;;;;40.72;19.50;;;;;;;1.38;91.88;101639.78;5066988;28;20052;-74
2022/03/04 03:56:45;;;;;;;47.95;20.40;;;;;;;1.35;91.66;101629.50;5059945;28;20048;-72
2022/03/04 03:59:12;;;;;;;48.00;20.33;;;;;;;1.27;92.54;101624.78;5066907;28;20045;-72
2022/03/04 04:01:39;;;;;;;45.30;19.98;;;;;;;1.27;92.84;101633.78;5066939;28;20049;-72
2022/03/04 04:04:09;;;;;;;44.13;19.20;;;;;;;1.29;92.59;101642.47;5067315;28;20106;-72
2022/03/04 04:06:36;;;;;;;46.33;19.15;;;;;;;1.24;94.25;101639.06;5067686;28;20048;-72
2022/03/04 04:09:02;;;;;;;41.50;19.30;;;;;;;1.26;93.14;101645.81;5070981;28;20055;-74
2022/03/04 04:11:30;;;;;;;43.75;19.88;;;;;;;1.17;93.42;101635.97;5077483;28;20080;-74
2022/03/04 04:13:57;;;;;;;44.83;19.88;;;;;;;1.21;94.33;101647.88;5068507;28;20137;-74
2022/03/04 04:16:24;;;;;;;50.33;19.45;;;;;;;1.21;94.71;101656.84;5068358;28;20132;-73
2022/03/04 04:18:50;;;;;;;49.67;21.80;;;;;;;1.16;95.27;101659.72;5066077;28;20044;-73
2022/03/04 04:21:17;;;;;;;50.58;21.27;;;;;;;1.15;95.46;101663.53;5066396;28;20139;-76
2022/03/04 04:23:43;;;;;;;46.92;21.10;;;;;;;1.12;95.67;101666.09;5067400;28;20129;-75
2022/03/04 04:26:10;;;;;;;44.33;19.48;;;;;;;1.08;95.76;101665.13;5067206;28;20080;-73
2022/03/04 04:28:37;;;;;;;51.83;20.90;;;;;;;1.09;96.32;101664.81;5068035;28;20054;-72
2022/03/04 04:31:03;;;;;;;48.53;20.38;;;;;;;1.06;95.38;101661.88;5066482;28;20081;-74
2022/03/04 04:33:31;;;;;;;50.90;22.52;;;;;;;1.07;95.80;101664.31;5067443;28;20525;-74
2022/03/04 04:35:57;;;;;;;50.72;22.48;;;;;;;1.07;96.75;101664.31;5066325;28;20049;-74
2022/03/04 04:38:24;;;;;;;46.72;21.25;;;;;;;1.06;94.96;101657.25;5066492;28;20048;-72
2022/03/04 04:40:51;;;;;;;49.60;22.88;;;;;;;1.06;96.03;101661.88;5067397;28;20131;-72
2022/03/04 04:43:17;;;;;;;47.20;21.88;;;;;;;1.05;96.72;101665.72;5066981;28;20455;-73
2022/03/04 04:45:44;;;;;;;48.10;21.60;;;;;;;0.97;96.83;101656.38;5066404;28;20502;-74
2022/03/04 04:48:11;;;;;;;47.78;22.50;;;;;;;0.99;98.21;101666.97;5067277;28;20144;-73
2022/03/04 04:50:37;;;;;;;48.78;22.98;;;;;;;0.96;97.64;101662.94;5067755;28;20062;-73
2022/03/04 04:53:04;;;;;;;50.55;23.90;;;;;;;0.93;97.53;101655.38;5067383;28;20134;-72
2022/03/04 04:55:30;;;;;;;46.13;21.48;;;;;;;0.94;97.90;101664.38;5061239;28;20467;-74
2022/03/04 04:57:57;;;;;;;50.05;22.58;;;;;;;0.90;98.57;101657.91;5065900;28;20041;-74
2022/03/04 05:00:24;;;;;;;47.05;21.85;;;;;;;0.91;98.54;101651.38;5067042;28;20064;-72
2022/03/04 05:02:50;;;;;;;53.38;22.63;;;;;;;0.86;97.51;101646.03;5067868;28;20052;-72
2022/03/04 05:05:18;;;;;;;44.65;20.25;;;;;;;0.90;98.97;101649.75;5067332;28;20055;-74
2022/03/04 05:07:46;;;;;;;52.47;22.95;;;;;;;0.89;99.04;101645.41;5066944;28;20135;-74
2022/03/04 05:10:13;;;;;;;49.33;23.05;;;;;;;0.85;99.15;101644.44;5073833;28;20080;-74
2022/03/04 05:12:39;;;;;;;47.63;23.20;;;;;;;0.86;98.39;101652.31;5065782;28;20057;-74
2022/03/04 05:15:07;;;;;;;53.40;23.23;;;;;;;0.82;97.58;101655.94;5067376;28;20053;-72
2022/03/04 05:17:34;;;;;;;52.72;20.55;;;;;;;0.79;97.52;101660.09;5065557;28;20048;-72
2022/03/04 05:20:00;;;;;;;43.70;20.08;;;;;;;0.71;97.14;101668.22;5078873;28;20140;-74
2022/03/04 05:22:27;;;;;;;47.35;20.92;;;;;;;0.64;96.99;101662.38;5067532;28;20170;-74
2022/03/04 05:24:54;;;;;;;58.45;22.45;;;;;;;0.62;97.12;101665.41;5067085;28;20082;-74
2022/03/04 05:27:20;;;;;;;42.90;20.17;;;;;;;0.59;97.03;101667.94;5066289;28;20068;-73
2022/03/04 05:29:47;;;;;;;45.53;21.13;;;;;;;0.55;97.69;101665.03;5065437;28;20072;-72
2022/03/04 05:32:13;;;;;;;42.78;20.58;;;;;;;0.50;97.68;101665.13;5066639;28;20160;-72
2022/03/04 05:34:43;;;;;;;46.45;21.70;;;;;;;0.47;98.23;101667.69;5067694;28;20143;-73
2022/03/04 05:37:10;;;;;;;47.05;19.80;;;;;;;0.46;98.33;101674.22;5067524;28;20050;-72
2022/03/04 05:39:36;;;;;;;41.30;20.60;;;;;;;0.41;99.19;101674.34;5066904;28;20045;-74
2022/03/04 05:42:03;;;;;;;45.15;20.70;;;;;;;0.40;99.44;101686.34;5066805;28;20620;-74
2022/03/04 05:44:29;;;;;;;46.67;21.92;;;;;;;0.35;98.88;101675.56;5067131;28;20049;-72
2022/03/04 05:46:56;;;;;;;49.13;21.52;;;;;;;0.34;99.64;101684.84;5068263;28;20105;-72
2022/03/04 05:49:22;;;;;;;49.13;21.05;;;;;;;0.30;98.86;101689.31;5070897;28;20124;-75
2022/03/04 05:51:50;;;;;;;49.80;20.95;;;;;;;0.28;99.01;101686.06;5068655;28;20045;-72
2022/03/04 05:54:16;;;;;;;47.28;20.27;;;;;;;0.26;99.55;101696.47;5069192;28;20148;-73
2022/03/04 05:56:43;;;;;;;53.83;22.95;;;;;;;0.24;100.00;101704.94;5069989;28;20048;-73
2022/03/04 05:59:09;;;;;;;56.95;21.80;;;;;;;0.22;100.00;101703.63;5070401;28;20057;-72
2022/03/04 06:01:36;;;;;;;44.67;19.52;;;;;;;0.23;100.00;101719.63;5068922;28;20055;-74
2022/03/04 06:04:03;;;;;;;45.97;21.02;;;;;;;0.21;100.00;101721.06;5070606;28;20049;-75
2022/03/04 06:06:30;;;;;;;50.60;20.35;;;;;;;0.24;100.00;101713.09;5070356;28;20139;-73
2022/03/04 06:08:56;;;;;;;48.15;20.95;;;;;;;0.27;100.00;101711.69;5073055;28;20131;-73
2022/03/04 06:11:23;;;;;;;53.53;22.83;;;;;;;0.30;100.00;101711.09;5078851;28;20048;-73
2022/03/04 06:13:49;;;;;;;48.45;19.95;;;;;;;0.33;100.00;101715.91;5069133;28;20062;-74
2022/03/04 06:16:16;;;;;;;52.08;21.38;;;;;;;0.33;100.00;101707.75;5070069;28;20564;-73
2022/03/04 06:18:42;;;;;;;50.92;22.00;;;;;;;0.37;100.00;101714.19;5068210;28;20139;-73
2022/03/04 06:21:09;;;;;;;47.90;21.98;;;;;;;0.40;100.00;101717.09;5068610;28;20515;-73
2022/03/04 06:23:36;;;;;;;47.40;22.13;;;;;;;0.46;100.00;101720.50;5070519;28;20501;-76
2022/03/04 06:26:02;;;;;;;53.75;23.42;;;;;;;0.45;100.00;101717.00;5065165;28;20063;-75
2022/03/04 06:28:29;;;;;;;50.30;20.88;;;;;;;0.46;100.00;101731.41;5069768;28;20140;-74
2022/03/04 06:30:56;;;;;;;51.53;23.23;;;;;;;0.47;100.00;101735.75;5072858;28;20052;-75
2022/03/04 06:33:32;;;;;;;52.03;22.88;;;;;;;0.48;100.00;101721.84;5068466;28;20720;-75
2022/03/04 06:36:11;;;;;;;51.95;23.05;;;;;;;0.53;100.00;101726.34;5065493;28;20045;-74
2022/03/04 06:38:41;;;;;;;51.38;22.15;;;;;;;0.54;100.00;101730.69;5057863;28;20202;-74
2022/03/04 06:41:10;;;;;;;48.17;23.90;;;;;;;0.54;100.00;101747.81;5070275;28;20098;-74
2022/03/04 06:43:37;;;;;;;55.17;23.58;;;;;;;0.55;100.00;101741.28;5069550;28;20552;-74
2022/03/04 06:46:04;;;;;;;48.15;21.38;;;;;;;0.57;100.00;101741.00;5067642;28;20048;-74
2022/03/04 06:48:31;;;;;;;46.83;20.98;;;;;;;0.59;100.00;101734.13;5077239;28;20421;-75
2022/03/04 06:50:58;;;;;;;53.00;22.05;;;;;;;0.57;100.00;101735.53;5064574;28;20056;-74
2022/03/04 06:53:25;;;;;;;50.17;22.98;;;;;;;0.63;100.00;101742.47;5055890;28;20053;-74
2022/03/04 06:55:52;;;;;;;51.33;20.90;;;;;;;0.63;100.00;101754.16;5056297;28;20146;-76
2022/03/04 06:58:18;;;;;;;45.40;19.52;;;;;;;0.70;100.00;101749.13;5068682;28;20815;-74
2022/03/04 07:00:46;;;;;;;47.97;20.20;;;;;;;0.70;100.00;101767.38;5068431;28;20080;-76
2022/03/04 07:03:14;;;;;;;50.22;20.85;;;;;;;0.68;100.00;101750.53;5068391;28;20063;-75
2022/03/04 07:05:43;;;;;;;48.45;21.88;;;;;;;0.70;100.00;101756.47;5078765;28;20135;-74
2022/03/04 07:08:11;;;;;;;51.97;18.73;;;;;;;0.74;100.00;101771.91;5070955;28;20048;-77
2022/03/04 07:10:39;;;;;;;44.13;20.63;;;;;;;0.74;100.00;101769.19;5069857;28;20117;-73
2022/03/04 07:13:06;;;;;;;45.35;21.42;;;;;;;0.81;100.00;101785.91;5066337;28;20044;-76
2022/03/04 07:15:33;;;;;;;56.47;22.42;;;;;;;0.82;100.00;101778.56;5063574;28;20052;-76
2022/03/04 07:17:59;;;;;;;52.30;23.17;;;;;;;0.86;100.00;101782.28;5069487;28;20045;-76
2022/03/04 07:20:26;;;;;;;48.47;20.23;;;;;;;0.88;100.00;101777.31;5068204;28;20436;-77
2022/03/04 07:22:53;;;;;;;55.35;23.42;;;;;;;0.94;100.00;101784.28;5065330;28;20564;-78
2022/03/04 07:25:19;;;;;;;52.45;22.60;;;;;;;0.97;100.00;101776.28;5069583;28;20131;-78
2022/03/04 07:27:46;;;;;;;52.83;21.58;;;;;;;1.04;100.00;101779.38;5067044;28;20102;-77
2022/03/04 07:30:14;;;;;;;60.90;25.50;;;;;;;1.10;100.00;101771.91;5068079;28;20049;-78
2022/03/04 07:32:42;;;;;;;56.28;24.95;;;;;;;1.14;100.00;101781.06;5067441;28;20075;-76
2022/03/04 07:35:10;;;;;;;53.38;24.35;;;;;;;1.08;100.00;101755.06;5066279;28;20428;-76
2022/03/04 07:37:38;;;;;;;52.50;23.13;;;;;;;1.28;100.00;101782.63;5067783;28;20110;-76
2022/03/04 07:40:06;;;;;;;56.72;25.35;;;;;;;1.32;100.00;101788.28;5066815;28;20473;-76
2022/03/04 07:42:33;;;;;;;61.20;25.38;;;;;;;1.35;100.00;101784.94;5064665;28;20852;-76
2022/03/04 07:45:00;;;;;;;53.70;21.58;;;;;;;1.40;100.00;101782.06;5068154;28;20131;-76
2022/03/04 07:47:27;;;;;;;60.72;25.50;;;;;;;1.46;100.00;101776.19;5066762;28;20048;-76
2022/03/04 07:49:53;;;;;;;58.67;25.88;;;;;;;1.53;100.00;101783.94;5068236;28;20460;-76
2022/03/04 07:52:20;;;;;;;63.17;26.95;;;;;;;1.60;100.00;101795.19;5068322;28;20072;-75
2022/03/04 07:54:46;;;;;;;51.53;22.08;;;;;;;1.67;100.00;101792.84;5069803;28;20127;-76
2022/03/04 07:57:13;;;;;;;48.47;19.08;;;;;;;1.69;100.00;101794.13;5066646;28;20152;-76
2022/03/04 07:59:39;;;;;;;57.70;24.20;;;;;;;1.75;100.00;101789.34;5067954;28;20040;-74
2022/03/04 08:02:06;;;;;;;56.90;26.52;;;;;;;1.80;100.00;101787.31;5067673;28;20150;-74
2022/03/04 08:04:33;;;;;;;56.30;25.60;;;;;;;1.84;100.00;101777.38;5067896;28;20401;-75
2022/03/04 08:06:59;;;;;;;56.28;24.02;;;;;;;1.96;100.00;101785.78;5067730;28;20055;-75
2022/03/04 08:09:26;;;;;;;53.25;22.98;;;;;;;2.03;100.00;101777.16;5073056;28;20070;-75
2022/03/04 08:11:53;;;;;;;53.75;23.52;;;;;;;2.11;100.00;101781.84;5071764;28;20087;-75
2022/03/04 08:14:19;;;;;;;52.22;25.17;;;;;;;2.14;100.00;101781.22;5064927;28;20053;-75
2022/03/04 08:16:46;;;;;;;43.78;18.00;;;;;;;2.22;100.00;101781.25;5067514;28;20048;-74
2022/03/04 08:19:12;;;;;;;52.35;23.70;;;;;;;2.28;100.00;101784.63;5067080;28;20733;-73
2022/03/04 08:21:39;;;;;;;46.72;22.83;;;;;;;2.36;100.00;101794.75;5065845;28;20131;-75
2022/03/04 08:24:06;;;;;;;53.20;24.77;;;;;;;2.45;100.00;101796.44;5066129;28;20062;-74
2022/03/04 08:26:33;;;;;;;50.40;23.50;;;;;;;2.53;100.00;101798.38;5066742;28;20056;-75
2022/03/04 08:29:00;;;;;;;57.78;25.02;;;;;;;2.60;100.00;101797.91;5067990;28;20131;-75
2022/03/04 08:31:27;;;;;;;46.55;23.10;;;;;;;2.72;100.00;101806.28;5067888;28;20139;-74
2022/03/04 08:33:54;;;;;;;45.28;21.80;;;;;;;2.79;100.00;101798.41;5068793;28;20053;-74
2022/03/04 08:36:20;;;;;;;42.03;18.27;;;;;;;2.85;100.00;101802.63;5067042;28;20448;-75
2022/03/04 08:38:47;;;;;;;50.60;21.73;;;;;;;2.95;99.70;101804.22;5067367;28;20134;-75
2022/03/04 08:41:14;;;;;;;51.78;21.95;;;;;;;3.02;99.28;101808.09;5068188;28;20424;-75
2022/03/04 08:43:41;;;;;;;42.95;17.92;;;;;;;3.09;98.97;101802.97;5066826;28;20091;-75
2022/03/04 08:46:08;;;;;;;59.13;24.00;;;;;;;3.16;98.32;101803.28;5063108;28;20048;-75
2022/03/04 08:48:35;;;;;;;52.83;23.73;;;;;;;3.28;98.01;101802.66;5067473;28;20428;-75
2022/03/04 08:51:02;;;;;;;45.40;20.17;;;;;;;3.40;97.29;101803.59;5069661;28;20056;-75
2022/03/04 08:53:29;;;;;;;57.08;22.48;;;;;;;3.50;97.01;101797.78;5068538;28;20094;-75
2022/03/04 08:55:55;;;;;;;29.88;11.73;;;;;;;3.61;96.52;101803.75;5065203;28;20494;-75
2022/03/04 08:58:22;;;;;;;46.20;21.02;;;;;;;3.71;96.32;101804.19;5067191;28;20087;-76
2022/03/04 09:00:49;;;;;;;52.25;22.17;;;;;;;3.82;95.79;101805.50;5067779;28;20493;-75
2022/03/04 09:03:16;;;;;;;49.03;20.13;;;;;;;3.94;94.94;101808.34;5065298;28;20414;-74
2022/03/04 09:05:43;;;;;;;48.08;21.38;;;;;;;4.03;94.12;101805.56;5060441;28;20052;-75
2022/03/04 09:08:09;;;;;;;59.90;23.40;;;;;;;4.19;93.82;101803.91;5056296;28;20399;-73
2022/03/04 09:10:36;;;;;;;46.53;22.27;;;;;;;4.31;92.09;101813.03;5056841;28;20139;-76
2022/03/04 09:13:04;;;;;;;23.27;10.52;;;;;;;4.43;91.91;101804.94;5064525;28;20076;-73
2022/03/04 09:15:31;;;;;;;45.60;21.52;;;;;;;4.55;90.73;101810.50;5064580;28;20084;-75
2022/03/04 09:17:58;;;;;;;45.95;21.80;;;;;;;4.65;89.76;101801.91;5066091;28;20049;-75
2022/03/04 09:20:29;;;;;;;35.42;14.40;;;;;;;4.77;88.97;101796.53;5068960;28;20055;-76
2022/03/04 09:22:57;;;;;;;44.42;21.17;;;;;;;4.91;87.51;101797.06;5070374;28;20421;-74
2022/03/04 09:25:26;;;;;;;42.67;18.70;;;;;;;5.04;86.46;101804.22;5071282;28;20053;-75
2022/03/04 09:27:53;;;;;;;27.20;11.52;;;;;;;5.13;85.04;101785.75;5070483;28;20156;-73
2022/03/04 09:30:20;;;;;;;47.95;21.02;;;;;;;5.24;83.48;101791.66;5067094;28;20139;-73
2022/03/04 09:32:46;;;;;;;40.85;16.10;;;;;;;5.36;82.97;101788.94;5066775;28;20123;-73
2022/03/04 09:35:13;;;;;;;47.55;21.27;;;;;;;5.48;82.08;101780.78;5063388;28;20171;-73
2022/03/04 09:37:39;;;;;;;69.53;28.58;;;;;;;5.68;81.65;101792.84;5050543;28;20102;-76
2022/03/04 09:40:08;;;;;;;42.13;19.25;;;;;;;5.83;79.56;101789.50;5057152;28;20508;-75
2022/03/04 09:42:36;;;;;;;44.30;18.70;;;;;;;5.97;78.32;101785.28;5058985;28;20094;-72
2022/03/04 09:45:03;;;;;;;43.72;20.35;;;;;;;6.05;77.55;101778.09;5069417;28;20060;-73
2022/03/04 09:47:30;;;;;;;46.40;23.85;;;;;;;6.24;78.21;101795.63;5058783;28;20102;-74
2022/03/04 09:49:58;;;;;;;39.90;16.55;;;;;;;6.34;76.09;101795.19;5063911;28;20048;-74
2022/03/04 09:52:25;;;;;;;40.40;19.25;;;;;;;6.46;73.99;101786.97;5067602;28;20135;-74
2022/03/04 09:54:53;;;;;;;44.13;20.60;;;;;;;6.62;73.83;101785.09;5070085;28;20052;-74
2022/03/04 09:57:19;;;;;;;40.20;19.30;;;;;;;6.76;72.33;101784.75;5054014;28;20470;-73
2022/03/04 09:59:46;;;;;;;39.10;18.67;;;;;;;6.87;70.21;101780.38;5051426;28;20135;-73
2022/03/04 10:02:13;;;;;;;37.97;19.20;;;;;;;6.95;68.47;101785.75;5048318;28;20139;-73
2022/03/04 10:04:41;;;;;;;35.45;16.17;;;;;;;7.11;68.45;101791.34;5054555;28;20044;-74
2022/03/04 10:07:16;;;;;;;45.60;20.08;;;;;;;7.24;67.12;101785.47;5049462;28;20054;-74
2022/03/04 10:09:48;;;;;;;39.42;16.83;;;;;;;7.43;65.70;101782.06;5048342;28;20250;-74
2022/03/04 10:12:17;;;;;;;40.90;18.80;;;;;;;7.50;64.03;101777.53;5051664;28;20163;-74
2022/03/04 10:15:03;;;;;;;45.35;19.15;;;;;;;7.66;63.65;101785.84;5044846;28;20057;-74
2022/03/04 10:17:33;;;;;;;44.92;18.40;;;;;;;7.79;63.61;101782.69;5047799;28;20040;-74
2022/03/04 10:20:06;;;;;;;40.97;19.05;;;;;;;7.94;62.59;101778.34;5046321;28;20048;-74
2022/03/04 10:22:45;;;;;;;40.13;17.58;;;;;;;8.07;61.09;101783.41;5054303;28;20084;-75
2022/03/04 10:25:14;;;;;;;40.33;17.48;;;;;;;8.26;60.48;101788.25;5056840;28;20059;-73
2022/03/04 10:27:40;;;;;;;33.45;15.68;;;;;;;8.40;58.25;101785.84;5058625;28;20056;-73
2022/03/04 10:30:07;;;;;;;42.83;18.13;;;;;;;8.59;59.17;101779.59;5059541;28;20054;-73
2022/03/04 10:32:34;;;;;;;36.47;16.65;;;;;;;8.73;58.09;101774.41;5061501;28;20052;-72
2022/03/04 10:35:08;;;;;;;37.15;15.98;;;;;;;8.77;54.33;101784.38;5063997;28;20052;-74
2022/03/04 10:37:41;;;;;;;39.37;18.33;;;;;;;8.96;55.28;101784.44;5065312;28;20133;-73
2022/03/04 10:40:19;;;;;;;38.28;17.73;;;;;;;9.06;54.73;101786.63;5067550;28;20497;-73
2022/03/04 10:43:09;;;;;;;40.58;18.15;;;;;;;9.26;55.10;101784.69;5059942;28;20484;-73
2022/03/04 10:45:41;;;;;;;42.22;18.15;;;;;;;9.37;53.40;101771.88;5056666;28;20063;-74
2022/03/04 10:48:15;;;;;;;38.13;17.88;;;;;;;9.53;53.99;101776.19;5063745;28;20048;-73
2022/03/04 10:50:44;;;;;;;40.58;19.15;;;;;;;9.67;53.77;101773.69;5077509;28;20623;-73
2022/03/04 10:53:18;;;;;;;35.58;16.08;;;;;;;9.82;51.40;101764.50;5063166;28;20480;-74
2022/03/04 10:55:50;;;;;;;40.25;18.15;;;;;;;9.97;51.12;101773.84;5063870;28;20056;-74
2022/03/04 10:58:30;;;;;;;37.95;18.55;;;;;;;10.19;51.43;101775.84;5062436;28;20044;-71
2022/03/04 11:01:01;;;;;;;38.90;18.70;;;;;;;10.28;50.78;101781.94;5060763;28;20064;-72
2022/03/04 11:03:30;;;;;;;40.53;20.63;;;;;;;10.37;49.93;101766.66;5060792;28;20048;-72
2022/03/04 11:06:03;;;;;;;42.03;20.42;;;;;;;10.59;50.18;101769.81;5059354;28;20052;-73
2022/03/04 11:08:29;;;;;;;43.55;20.42;;;;;;;10.73;49.97;101776.31;5055135;28;20066;-71
2022/03/04 11:11:02;;;;;;;38.40;18.02;;;;;;;10.97;49.88;101778.66;5051989;28;20045;-73
2022/03/04 11:13:30;;;;;;;42.28;22.25;;;;;;;11.55;48.72;101767.94;5057509;28;20591;-73
2022/03/04 11:15:56;;;;;;;40.72;19.35;;;;;;;12.36;47.22;101764.03;5064191;28;20071;-74